sensor_id;sensor_type;location;lat;lon;timestamp;pressure;altitude;pressure_sealevel;temperature;humidity
52653;BME280;39353;42.864;12.014;2024-01-15T00:00:51;96517.95;;;19.57;49.50
52653;BME280;39353;42.864;12.014;2024-01-15T00:03:42;96513.94;;;19.55;49.58
52653;BME280;39353;42.864;12.014;2024-01-15T00:06:13;96508.61;;;19.53;49.59
52653;BME280;39353;42.864;12.014;2024-01-15T00:08:44;96504.98;;;19.50;49.60
52653;BME280;39353;42.864;12.014;2024-01-15T00:11:14;96503.54;;;19.49;49.66
52653;BME280;39353;42.864;12.014;2024-01-15T00:13:46;96498.48;;;19.46;49.53
52653;BME280;39353;42.864;12.014;2024-01-15T00:16:16;96495.62;;;19.44;49.65
52653;BME280;39353;42.864;12.014;2024-01-15T00:18:47;96489.82;;;19.43;49.74
52653;BME280;39353;42.864;12.014;2024-01-15T00:21:18;96488.67;;;19.39;49.86
52653;BME280;39353;42.864;12.014;2024-01-15T00:23:49;96486.05;;;19.37;49.95
52653;BME280;39353;42.864;12.014;2024-01-15T00:26:36;96479.92;;;19.35;49.93
52653;BME280;39353;42.864;12.014;2024-01-15T00:29:33;96468.16;;;19.32;49.88
52653;BME280;39353;42.864;12.014;2024-01-15T00:32:05;96465.99;;;19.29;50.08
52653;BME280;39353;42.864;12.014;2024-01-15T00:34:35;96460.95;;;19.28;50.09
52653;BME280;39353;42.864;12.014;2024-01-15T00:37:06;96461.10;;;19.27;50.05
52653;BME280;39353;42.864;12.014;2024-01-15T00:39:37;96454.52;;;19.25;50.21
52653;BME280;39353;42.864;12.014;2024-01-15T00:42:08;96456.91;;;19.25;50.13
52653;BME280;39353;42.864;12.014;2024-01-15T00:44:38;96449.42;;;19.23;50.21
52653;BME280;39353;42.864;12.014;2024-01-15T00:47:10;96447.98;;;19.21;50.17
52653;BME280;39353;42.864;12.014;2024-01-15T00:49:43;96441.92;;;19.18;50.33
52653;BME280;39353;42.864;12.014;2024-01-15T00:52:14;96436.12;;;19.17;50.22
52653;BME280;39353;42.864;12.014;2024-01-15T00:54:45;96434.30;;;19.16;50.28
52653;BME280;39353;42.864;12.014;2024-01-15T00:57:16;96426.87;;;19.15;50.39
52653;BME280;39353;42.864;12.014;2024-01-15T00:59:48;96419.57;;;19.14;50.32
52653;BME280;39353;42.864;12.014;2024-01-15T01:02:20;96412.86;;;19.13;50.42
52653;BME280;39353;42.864;12.014;2024-01-15T01:04:54;96413.11;;;19.12;50.47
52653;BME280;39353;42.864;12.014;2024-01-15T01:07:25;96412.48;;;19.11;50.48
52653;BME280;39353;42.864;12.014;2024-01-15T01:09:57;96414.10;;;19.11;50.52
52653;BME280;39353;42.864;12.014;2024-01-15T01:12:27;96403.34;;;19.10;50.40
52653;BME280;39353;42.864;12.014;2024-01-15T01:15:00;96399.95;;;19.09;50.46
52653;BME280;39353;42.864;12.014;2024-01-15T01:17:31;96404.01;;;19.08;50.40
52653;BME280;39353;42.864;12.014;2024-01-15T01:20:02;96396.55;;;19.07;50.48
52653;BME280;39353;42.864;12.014;2024-01-15T01:22:36;96404.53;;;19.07;50.44
52653;BME280;39353;42.864;12.014;2024-01-15T01:25:09;96401.30;;;19.06;50.49
52653;BME280;39353;42.864;12.014;2024-01-15T01:27:40;96395.13;;;19.05;50.34
52653;BME280;39353;42.864;12.014;2024-01-15T01:30:11;96391.14;;;19.03;50.43
52653;BME280;39353;42.864;12.014;2024-01-15T01:32:43;96390.90;;;19.02;50.47
52653;BME280;39353;42.864;12.014;2024-01-15T01:35:13;96380.13;;;19.02;50.60
52653;BME280;39353;42.864;12.014;2024-01-15T01:37:44;96370.80;;;19.00;50.52
52653;BME280;39353;42.864;12.014;2024-01-15T01:40:15;96369.23;;;18.99;50.49
52653;BME280;39353;42.864;12.014;2024-01-15T01:42:46;96367.87;;;18.98;50.43
52653;BME280;39353;42.864;12.014;2024-01-15T01:45:17;96365.90;;;18.96;50.60
52653;BME280;39353;42.864;12.014;2024-01-15T01:47:48;96364.27;;;18.95;50.66
52653;BME280;39353;42.864;12.014;2024-01-15T01:50:20;96361.19;;;18.94;50.57
52653;BME280;39353;42.864;12.014;2024-01-15T01:52:51;96360.40;;;18.93;50.60
52653;BME280;39353;42.864;12.014;2024-01-15T01:55:27;96354.40;;;18.92;50.74
52653;BME280;39353;42.864;12.014;2024-01-15T01:57:59;96355.17;;;18.92;50.52
52653;BME280;39353;42.864;12.014;2024-01-15T02:00:35;96348.07;;;18.90;50.54
52653;BME280;39353;42.864;12.014;2024-01-15T02:03:07;96340.70;;;18.88;50.63
52653;BME280;39353;42.864;12.014;2024-01-15T02:05:40;96346.67;;;18.88;50.72
52653;BME280;39353;42.864;12.014;2024-01-15T02:08:14;96342.86;;;18.88;50.74
52653;BME280;39353;42.864;12.014;2024-01-15T02:10:45;96336.21;;;18.87;50.79
52653;BME280;39353;42.864;12.014;2024-01-15T02:13:17;96326.77;;;18.86;50.70
52653;BME280;39353;42.864;12.014;2024-01-15T02:15:47;96328.81;;;18.87;50.75
52653;BME280;39353;42.864;12.014;2024-01-15T02:18:18;96323.80;;;18.86;50.71
52653;BME280;39353;42.864;12.014;2024-01-15T02:20:49;96322.79;;;18.85;50.70
52653;BME280;39353;42.864;12.014;2024-01-15T02:23:20;96321.80;;;18.84;50.76
52653;BME280;39353;42.864;12.014;2024-01-15T02:25:51;96317.28;;;18.84;50.74
52653;BME280;39353;42.864;12.014;2024-01-15T02:28:22;96309.39;;;18.83;50.78
52653;BME280;39353;42.864;12.014;2024-01-15T02:30:53;96305.52;;;18.83;50.74
52653;BME280;39353;42.864;12.014;2024-01-15T02:33:38;96304.15;;;18.82;50.87
52653;BME280;39353;42.864;12.014;2024-01-15T02:36:09;96297.95;;;18.81;50.88
52653;BME280;39353;42.864;12.014;2024-01-15T02:38:41;96294.34;;;18.81;50.78
52653;BME280;39353;42.864;12.014;2024-01-15T02:41:12;96288.52;;;18.80;50.84
52653;BME280;39353;42.864;12.014;2024-01-15T02:47:02;96278.61;;;18.80;50.70
52653;BME280;39353;42.864;12.014;2024-01-15T02:49:33;96265.73;;;18.79;50.91
52653;BME280;39353;42.864;12.014;2024-01-15T03:30:55;96218.36;;;18.81;50.78
52653;BME280;39353;42.864;12.014;2024-01-15T03:33:25;96217.20;;;18.80;50.56
52653;BME280;39353;42.864;12.014;2024-01-15T03:35:56;96216.12;;;18.80;50.72
52653;BME280;39353;42.864;12.014;2024-01-15T03:38:28;96211.90;;;18.78;50.85
52653;BME280;39353;42.864;12.014;2024-01-15T03:40:59;96205.67;;;18.76;50.81
52653;BME280;39353;42.864;12.014;2024-01-15T03:43:31;96206.67;;;18.74;50.77
52653;BME280;39353;42.864;12.014;2024-01-15T03:46:02;96203.88;;;18.73;50.83
52653;BME280;39353;42.864;12.014;2024-01-15T03:48:33;96202.23;;;18.73;50.73
52653;BME280;39353;42.864;12.014;2024-01-15T03:51:05;96189.73;;;18.69;50.83
52653;BME280;39353;42.864;12.014;2024-01-15T03:53:36;96193.92;;;18.70;50.88
52653;BME280;39353;42.864;12.014;2024-01-15T03:56:08;96189.44;;;18.69;50.83
52653;BME280;39353;42.864;12.014;2024-01-15T03:58:39;96188.56;;;18.67;50.90
52653;BME280;39353;42.864;12.014;2024-01-15T04:01:11;96183.05;;;18.66;50.89
52653;BME280;39353;42.864;12.014;2024-01-15T04:03:41;96181.06;;;18.64;51.02
52653;BME280;39353;42.864;12.014;2024-01-15T04:06:12;96178.92;;;18.63;50.98
52653;BME280;39353;42.864;12.014;2024-01-15T04:08:43;96170.20;;;18.62;51.00
52653;BME280;39353;42.864;12.014;2024-01-15T04:11:14;96164.12;;;18.62;51.02
52653;BME280;39353;42.864;12.014;2024-01-15T04:13:45;96161.87;;;18.61;51.11
52653;BME280;39353;42.864;12.014;2024-01-15T04:16:15;96160.31;;;18.59;51.10
52653;BME280;39353;42.864;12.014;2024-01-15T04:18:46;96160.37;;;18.59;51.05
52653;BME280;39353;42.864;12.014;2024-01-15T04:21:18;96152.20;;;18.58;51.14
52653;BME280;39353;42.864;12.014;2024-01-15T04:23:49;96147.51;;;18.56;51.08
52653;BME280;39353;42.864;12.014;2024-01-15T04:26:20;96147.61;;;18.56;51.17
52653;BME280;39353;42.864;12.014;2024-01-15T04:28:51;96154.31;;;18.55;51.29
52653;BME280;39353;42.864;12.014;2024-01-15T04:31:26;96154.91;;;18.54;51.20
52653;BME280;39353;42.864;12.014;2024-01-15T04:33:57;96153.23;;;18.55;51.15
52653;BME280;39353;42.864;12.014;2024-01-15T04:36:28;96158.66;;;18.55;51.21
52653;BME280;39353;42.864;12.014;2024-01-15T04:38:59;96159.04;;;18.55;51.19
52653;BME280;39353;42.864;12.014;2024-01-15T04:41:29;96155.02;;;18.54;51.22
52653;BME280;39353;42.864;12.014;2024-01-15T04:44:00;96151.68;;;18.53;51.25
52653;BME280;39353;42.864;12.014;2024-01-15T04:46:33;96149.99;;;18.52;51.26
52653;BME280;39353;42.864;12.014;2024-01-15T04:49:04;96149.63;;;18.51;51.24
52653;BME280;39353;42.864;12.014;2024-01-15T04:51:35;96145.73;;;18.51;51.23
52653;BME280;39353;42.864;12.014;2024-01-15T04:54:07;96148.38;;;18.51;51.24
52653;BME280;39353;42.864;12.014;2024-01-15T04:56:38;96150.32;;;18.50;51.36
52653;BME280;39353;42.864;12.014;2024-01-15T04:59:09;96150.42;;;18.50;51.35
52653;BME280;39353;42.864;12.014;2024-01-15T05:01:39;96152.03;;;18.49;51.37
52653;BME280;39353;42.864;12.014;2024-01-15T05:04:10;96148.24;;;18.49;51.25
52653;BME280;39353;42.864;12.014;2024-01-15T05:06:41;96144.02;;;18.50;51.22
52653;BME280;39353;42.864;12.014;2024-01-15T05:09:12;96139.70;;;18.49;51.26
52653;BME280;39353;42.864;12.014;2024-01-15T05:11:43;96135.17;;;18.48;51.34
52653;BME280;39353;42.864;12.014;2024-01-15T05:14:14;96135.05;;;18.47;51.30
52653;BME280;39353;42.864;12.014;2024-01-15T05:16:49;96133.73;;;18.46;51.42
52653;BME280;39353;42.864;12.014;2024-01-15T05:19:21;96136.29;;;18.46;51.38
52653;BME280;39353;42.864;12.014;2024-01-15T05:21:52;96130.90;;;18.46;51.32
52653;BME280;39353;42.864;12.014;2024-01-15T05:24:22;96128.67;;;18.46;51.28
52653;BME280;39353;42.864;12.014;2024-01-15T05:26:55;96131.55;;;18.46;51.22
52653;BME280;39353;42.864;12.014;2024-01-15T05:29:26;96127.20;;;18.45;51.32
52653;BME280;39353;42.864;12.014;2024-01-15T05:31:57;96126.16;;;18.45;51.30
52653;BME280;39353;42.864;12.014;2024-01-15T05:34:28;96116.66;;;18.43;51.30
52653;BME280;39353;42.864;12.014;2024-01-15T05:36:59;96111.10;;;18.42;51.49
52653;BME280;39353;42.864;12.014;2024-01-15T05:39:31;96106.00;;;18.42;51.39
52653;BME280;39353;42.864;12.014;2024-01-15T05:42:02;96102.89;;;18.41;51.23
52653;BME280;39353;42.864;12.014;2024-01-15T05:44:32;96098.71;;;18.41;51.32
52653;BME280;39353;42.864;12.014;2024-01-15T05:47:03;96099.25;;;18.41;51.30
52653;BME280;39353;42.864;12.014;2024-01-15T05:49:34;96093.66;;;18.41;51.29
52653;BME280;39353;42.864;12.014;2024-01-15T05:52:05;96089.09;;;18.41;51.38
52653;BME280;39353;42.864;12.014;2024-01-15T05:54:36;96084.90;;;18.39;51.40
52653;BME280;39353;42.864;12.014;2024-01-15T05:57:07;96083.65;;;18.39;51.48
52653;BME280;39353;42.864;12.014;2024-01-15T05:59:39;96085.75;;;18.38;51.46
52653;BME280;39353;42.864;12.014;2024-01-15T06:02:09;96090.78;;;18.37;51.51
52653;BME280;39353;42.864;12.014;2024-01-15T06:04:40;96092.59;;;18.38;51.32
52653;BME280;39353;42.864;12.014;2024-01-15T06:07:11;96098.78;;;18.38;51.51
52653;BME280;39353;42.864;12.014;2024-01-15T06:09:42;96100.45;;;18.37;51.34
52653;BME280;39353;42.864;12.014;2024-01-15T06:12:12;96099.97;;;18.35;51.50
52653;BME280;39353;42.864;12.014;2024-01-15T06:14:43;96101.17;;;18.35;51.50
52653;BME280;39353;42.864;12.014;2024-01-15T06:17:14;96099.88;;;18.36;51.27
52653;BME280;39353;42.864;12.014;2024-01-15T06:19:45;96107.06;;;18.37;51.38
52653;BME280;39353;42.864;12.014;2024-01-15T06:22:17;96110.36;;;18.39;51.35
52653;BME280;39353;42.864;12.014;2024-01-15T06:24:48;96111.23;;;18.38;51.20
52653;BME280;39353;42.864;12.014;2024-01-15T06:27:19;96106.80;;;18.39;51.26
52653;BME280;39353;42.864;12.014;2024-01-15T06:29:50;96106.30;;;18.41;51.28
52653;BME280;39353;42.864;12.014;2024-01-15T06:32:21;96102.08;;;18.40;51.39
52653;BME280;39353;42.864;12.014;2024-01-15T06:34:52;96100.50;;;18.40;51.39
52653;BME280;39353;42.864;12.014;2024-01-15T06:37:23;96102.13;;;18.40;51.26
52653;BME280;39353;42.864;12.014;2024-01-15T06:39:53;96105.00;;;18.39;51.42
52653;BME280;39353;42.864;12.014;2024-01-15T06:42:24;96105.39;;;18.39;51.21
52653;BME280;39353;42.864;12.014;2024-01-15T06:44:55;96107.25;;;18.38;51.31
52653;BME280;39353;42.864;12.014;2024-01-15T06:47:26;96110.81;;;18.37;51.32
52653;BME280;39353;42.864;12.014;2024-01-15T06:49:58;96110.26;;;18.36;51.40
52653;BME280;39353;42.864;12.014;2024-01-15T06:52:28;96117.29;;;18.35;51.59
52653;BME280;39353;42.864;12.014;2024-01-15T06:54:59;96124.27;;;18.34;51.38
52653;BME280;39353;42.864;12.014;2024-01-15T06:57:30;96126.81;;;18.33;51.35
52653;BME280;39353;42.864;12.014;2024-01-15T07:00:01;96133.48;;;18.32;51.43
52653;BME280;39353;42.864;12.014;2024-01-15T07:02:37;96133.08;;;18.31;51.58
52653;BME280;39353;42.864;12.014;2024-01-15T07:05:08;96134.55;;;18.28;51.65
52653;BME280;39353;42.864;12.014;2024-01-15T07:07:39;96129.73;;;18.26;51.74
52653;BME280;39353;42.864;12.014;2024-01-15T07:10:10;96131.25;;;18.29;51.60
52653;BME280;39353;42.864;12.014;2024-01-15T07:12:43;96132.86;;;18.31;51.67
52653;BME280;39353;42.864;12.014;2024-01-15T07:15:14;96137.11;;;18.32;51.58
52653;BME280;39353;42.864;12.014;2024-01-15T07:17:45;96143.09;;;18.32;51.60
52653;BME280;39353;42.864;12.014;2024-01-15T07:20:16;96143.47;;;18.32;51.56
52653;BME280;39353;42.864;12.014;2024-01-15T07:22:49;96145.59;;;18.32;51.81
52653;BME280;39353;42.864;12.014;2024-01-15T07:25:20;96150.16;;;18.33;51.91
52653;BME280;39353;42.864;12.014;2024-01-15T07:27:51;96145.08;;;18.27;51.64
52653;BME280;39353;42.864;12.014;2024-01-15T07:30:23;96151.61;;;18.26;51.76
52653;BME280;39353;42.864;12.014;2024-01-15T07:32:54;96152.21;;;18.25;51.85
52653;BME280;39353;42.864;12.014;2024-01-15T07:35:26;96155.98;;;18.24;51.88
52653;BME280;39353;42.864;12.014;2024-01-15T07:37:58;96156.17;;;18.25;52.23
52653;BME280;39353;42.864;12.014;2024-01-15T07:40:29;96152.39;;;18.26;52.05
52653;BME280;39353;42.864;12.014;2024-01-15T07:42:59;96149.91;;;18.28;52.12
52653;BME280;39353;42.864;12.014;2024-01-15T07:45:30;96142.96;;;18.28;52.12
52653;BME280;39353;42.864;12.014;2024-01-15T07:48:01;96143.34;;;18.27;51.92
52653;BME280;39353;42.864;12.014;2024-01-15T07:50:33;96145.00;;;18.22;51.34
52653;BME280;39353;42.864;12.014;2024-01-15T07:53:05;96153.20;;;18.19;51.80
52653;BME280;39353;42.864;12.014;2024-01-15T07:55:36;96148.91;;;18.19;52.03
52653;BME280;39353;42.864;12.014;2024-01-15T07:58:07;96152.54;;;18.18;51.93
52653;BME280;39353;42.864;12.014;2024-01-15T08:00:38;96149.77;;;18.18;52.07
52653;BME280;39353;42.864;12.014;2024-01-15T08:03:08;96154.73;;;18.19;52.12
52653;BME280;39353;42.864;12.014;2024-01-15T08:05:39;96159.53;;;18.20;52.09
52653;BME280;39353;42.864;12.014;2024-01-15T08:08:10;96161.02;;;18.21;51.92
52653;BME280;39353;42.864;12.014;2024-01-15T08:10:41;96166.05;;;18.23;51.77
52653;BME280;39353;42.864;12.014;2024-01-15T08:13:12;96176.88;;;18.24;51.83
52653;BME280;39353;42.864;12.014;2024-01-15T08:15:43;96175.33;;;18.24;51.98
52653;BME280;39353;42.864;12.014;2024-01-15T08:18:14;96172.39;;;18.25;51.92
52653;BME280;39353;42.864;12.014;2024-01-15T08:20:45;96173.48;;;18.25;51.72
52653;BME280;39353;42.864;12.014;2024-01-15T08:23:16;96173.41;;;18.24;51.79
52653;BME280;39353;42.864;12.014;2024-01-15T08:25:47;96182.07;;;18.25;51.74
52653;BME280;39353;42.864;12.014;2024-01-15T08:28:20;96186.77;;;18.27;51.72
52653;BME280;39353;42.864;12.014;2024-01-15T08:30:51;96193.98;;;18.27;51.71
52653;BME280;39353;42.864;12.014;2024-01-15T08:36:25;96194.73;;;18.02;51.36
52653;BME280;39353;42.864;12.014;2024-01-15T08:38:56;96206.65;;;18.04;51.79
52653;BME280;39353;42.864;12.014;2024-01-15T08:41:26;96206.96;;;18.08;51.84
52653;BME280;39353;42.864;12.014;2024-01-15T08:43:57;96214.38;;;18.12;51.89
52653;BME280;39353;42.864;12.014;2024-01-15T08:46:28;96225.78;;;18.15;51.70
52653;BME280;39353;42.864;12.014;2024-01-15T08:48:59;96224.90;;;18.18;51.61
52653;BME280;39353;42.864;12.014;2024-01-15T08:51:30;96228.96;;;18.19;51.52
52653;BME280;39353;42.864;12.014;2024-01-15T08:54:01;96226.68;;;18.22;51.76
52653;BME280;39353;42.864;12.014;2024-01-15T08:56:33;96226.88;;;18.23;51.74
52653;BME280;39353;42.864;12.014;2024-01-15T08:59:03;96232.98;;;18.27;51.70
52653;BME280;39353;42.864;12.014;2024-01-15T09:01:34;96235.70;;;18.30;51.62
52653;BME280;39353;42.864;12.014;2024-01-15T09:04:06;96235.68;;;18.32;51.71
52653;BME280;39353;42.864;12.014;2024-01-15T09:06:37;96240.08;;;18.34;51.70
52653;BME280;39353;42.864;12.014;2024-01-15T09:09:07;96241.61;;;18.35;51.81
52653;BME280;39353;42.864;12.014;2024-01-15T09:11:38;96238.14;;;18.35;52.00
52653;BME280;39353;42.864;12.014;2024-01-15T09:14:09;96235.59;;;18.35;52.00
52653;BME280;39353;42.864;12.014;2024-01-15T09:16:40;96233.54;;;18.36;51.89
52653;BME280;39353;42.864;12.014;2024-01-15T09:19:11;96231.01;;;18.37;51.95
52653;BME280;39353;42.864;12.014;2024-01-15T09:21:42;96228.75;;;18.38;51.88
52653;BME280;39353;42.864;12.014;2024-01-15T09:24:12;96229.13;;;18.38;51.86
52653;BME280;39353;42.864;12.014;2024-01-15T09:26:43;96226.54;;;18.39;51.88
52653;BME280;39353;42.864;12.014;2024-01-15T09:29:14;96225.95;;;18.39;51.98
52653;BME280;39353;42.864;12.014;2024-01-15T09:31:45;96220.02;;;18.39;51.99
52653;BME280;39353;42.864;12.014;2024-01-15T09:34:16;96219.31;;;18.36;52.07
52653;BME280;39353;42.864;12.014;2024-01-15T09:36:47;96223.88;;;18.34;52.15
52653;BME280;39353;42.864;12.014;2024-01-15T09:39:35;96221.23;;;18.32;52.23
52653;BME280;39353;42.864;12.014;2024-01-15T09:42:06;96219.73;;;18.33;52.02
52653;BME280;39353;42.864;12.014;2024-01-15T11:42:01;96105.79;;;18.35;51.83
52653;BME280;39353;42.864;12.014;2024-01-15T11:44:32;96108.36;;;18.36;51.80
52653;BME280;39353;42.864;12.014;2024-01-15T11:47:05;96109.04;;;18.38;51.73
52653;BME280;39353;42.864;12.014;2024-01-15T11:50:00;96105.33;;;18.39;51.68
52653;BME280;39353;42.864;12.014;2024-01-15T11:52:35;96103.34;;;18.35;51.31
52653;BME280;39353;42.864;12.014;2024-01-15T11:55:14;96098.52;;;18.26;51.41
52653;BME280;39353;42.864;12.014;2024-01-15T11:57:49;96093.95;;;18.26;51.73
52653;BME280;39353;42.864;12.014;2024-01-15T12:00:23;96099.15;;;18.29;51.64
52653;BME280;39353;42.864;12.014;2024-01-15T12:02:54;96095.19;;;18.29;51.72
52653;BME280;39353;42.864;12.014;2024-01-15T12:05:26;96092.55;;;18.29;52.03
52653;BME280;39353;42.864;12.014;2024-01-15T12:07:56;96090.14;;;18.25;52.02
52653;BME280;39353;42.864;12.014;2024-01-15T12:10:27;96095.23;;;18.22;52.17
52653;BME280;39353;42.864;12.014;2024-01-15T12:13:09;96093.72;;;18.20;51.87
52653;BME280;39353;42.864;12.014;2024-01-15T12:15:42;96089.29;;;18.18;51.92
52653;BME280;39353;42.864;12.014;2024-01-15T12:18:15;96082.30;;;18.17;51.92
52653;BME280;39353;42.864;12.014;2024-01-15T12:20:47;96080.61;;;18.16;51.82
52653;BME280;39353;42.864;12.014;2024-01-15T12:23:18;96077.14;;;18.16;51.92
52653;BME280;39353;42.864;12.014;2024-01-15T12:25:50;96071.56;;;18.17;52.03
52653;BME280;39353;42.864;12.014;2024-01-15T12:28:21;96075.28;;;18.18;52.03
52653;BME280;39353;42.864;12.014;2024-01-15T12:30:52;96065.42;;;18.19;52.17
52653;BME280;39353;42.864;12.014;2024-01-15T12:33:23;96059.95;;;18.20;52.08
52653;BME280;39353;42.864;12.014;2024-01-15T12:35:55;96050.33;;;18.19;52.14
52653;BME280;39353;42.864;12.014;2024-01-15T12:38:26;96032.70;;;18.18;52.24
52653;BME280;39353;42.864;12.014;2024-01-15T12:41:01;96028.89;;;18.17;52.41
52653;BME280;39353;42.864;12.014;2024-01-15T12:43:32;96027.84;;;18.16;52.30
52653;BME280;39353;42.864;12.014;2024-01-15T12:46:03;96023.42;;;18.14;52.34
52653;BME280;39353;42.864;12.014;2024-01-15T12:48:34;96023.81;;;18.14;52.43
52653;BME280;39353;42.864;12.014;2024-01-15T12:51:09;96018.30;;;18.13;52.30
52653;BME280;39353;42.864;12.014;2024-01-15T12:53:40;96015.68;;;18.12;52.35
52653;BME280;39353;42.864;12.014;2024-01-15T12:56:11;96020.03;;;18.12;52.41
52653;BME280;39353;42.864;12.014;2024-01-15T12:58:42;96019.20;;;18.12;52.40
52653;BME280;39353;42.864;12.014;2024-01-15T13:01:13;96016.81;;;18.12;52.40
52653;BME280;39353;42.864;12.014;2024-01-15T13:03:44;96018.71;;;18.11;52.38
52653;BME280;39353;42.864;12.014;2024-01-15T13:06:14;96015.55;;;18.11;52.35
52653;BME280;39353;42.864;12.014;2024-01-15T13:08:46;96015.05;;;18.10;52.39
52653;BME280;39353;42.864;12.014;2024-01-15T13:11:17;96008.65;;;18.11;52.57
52653;BME280;39353;42.864;12.014;2024-01-15T13:13:48;96010.17;;;18.10;52.45
52653;BME280;39353;42.864;12.014;2024-01-15T13:16:18;95999.56;;;18.10;52.36
52653;BME280;39353;42.864;12.014;2024-01-15T13:18:59;95997.25;;;18.11;52.39
52653;BME280;39353;42.864;12.014;2024-01-15T13:21:29;95994.67;;;18.12;52.31
52653;BME280;39353;42.864;12.014;2024-01-15T13:24:01;95996.00;;;18.15;52.14
52653;BME280;39353;42.864;12.014;2024-01-15T13:26:33;96001.48;;;18.17;52.09
52653;BME280;39353;42.864;12.014;2024-01-15T13:29:04;96004.39;;;18.22;52.08
52653;BME280;39353;42.864;12.014;2024-01-15T13:31:35;96005.20;;;18.28;52.13
52653;BME280;39353;42.864;12.014;2024-01-15T13:34:07;96009.79;;;18.36;52.10
52653;BME280;39353;42.864;12.014;2024-01-15T13:36:39;96006.88;;;18.45;52.05
52653;BME280;39353;42.864;12.014;2024-01-15T13:39:10;96001.71;;;18.54;52.11
52653;BME280;39353;42.864;12.014;2024-01-15T13:41:41;95989.16;;;18.65;52.06
52653;BME280;39353;42.864;12.014;2024-01-15T13:44:13;95980.04;;;18.73;51.96
52653;BME280;39353;42.864;12.014;2024-01-15T13:46:44;95975.05;;;18.82;51.79
52653;BME280;39353;42.864;12.014;2024-01-15T13:49:15;95969.39;;;18.89;51.91
52653;BME280;39353;42.864;12.014;2024-01-15T13:51:45;95965.38;;;18.94;51.88
52653;BME280;39353;42.864;12.014;2024-01-15T13:54:16;95964.20;;;19.01;51.85
52653;BME280;39353;42.864;12.014;2024-01-15T13:56:49;95961.63;;;19.07;51.70
52653;BME280;39353;42.864;12.014;2024-01-15T13:59:20;95969.44;;;19.11;51.93
52653;BME280;39353;42.864;12.014;2024-01-15T14:01:50;95981.42;;;19.16;51.98
52653;BME280;39353;42.864;12.014;2024-01-15T14:04:21;95990.96;;;19.18;51.95
52653;BME280;39353;42.864;12.014;2024-01-15T14:06:52;95988.21;;;19.21;51.67
52653;BME280;39353;42.864;12.014;2024-01-15T14:09:23;95987.63;;;19.22;51.62
52653;BME280;39353;42.864;12.014;2024-01-15T14:11:55;95985.70;;;19.24;51.55
52653;BME280;39353;42.864;12.014;2024-01-15T14:14:26;95985.70;;;19.25;51.43
52653;BME280;39353;42.864;12.014;2024-01-15T14:16:57;95985.26;;;19.28;51.41
52653;BME280;39353;42.864;12.014;2024-01-15T14:19:27;95982.16;;;19.29;51.27
52653;BME280;39353;42.864;12.014;2024-01-15T14:21:58;95981.12;;;19.27;51.26
52653;BME280;39353;42.864;12.014;2024-01-15T14:24:29;95981.20;;;19.28;51.27
52653;BME280;39353;42.864;12.014;2024-01-15T14:27:00;95983.21;;;19.29;51.51
52653;BME280;39353;42.864;12.014;2024-01-15T14:29:31;95987.77;;;19.29;51.77
52653;BME280;39353;42.864;12.014;2024-01-15T14:32:02;95987.92;;;19.28;51.69
52653;BME280;39353;42.864;12.014;2024-01-15T14:34:33;95983.10;;;19.29;51.72
52653;BME280;39353;42.864;12.014;2024-01-15T14:37:05;95980.36;;;19.28;51.70
52653;BME280;39353;42.864;12.014;2024-01-15T14:39:36;95983.02;;;19.28;51.78
52653;BME280;39353;42.864;12.014;2024-01-15T14:42:07;95976.95;;;19.29;51.69
52653;BME280;39353;42.864;12.014;2024-01-15T14:44:38;95975.75;;;19.32;51.72
52653;BME280;39353;42.864;12.014;2024-01-15T14:47:10;95981.17;;;19.36;51.64
52653;BME280;39353;42.864;12.014;2024-01-15T14:49:41;95988.35;;;19.40;51.68
52653;BME280;39353;42.864;12.014;2024-01-15T14:52:11;95996.71;;;19.43;51.46
52653;BME280;39353;42.864;12.014;2024-01-15T14:54:42;95991.88;;;19.44;51.38
52653;BME280;39353;42.864;12.014;2024-01-15T14:57:13;95993.79;;;19.44;51.27
52653;BME280;39353;42.864;12.014;2024-01-15T14:59:48;95996.70;;;19.46;51.32
52653;BME280;39353;42.864;12.014;2024-01-15T15:02:20;95993.87;;;19.46;51.12
52653;BME280;39353;42.864;12.014;2024-01-15T15:04:51;95993.09;;;19.45;51.15
52653;BME280;39353;42.864;12.014;2024-01-15T15:07:23;96003.55;;;19.45;51.20
52653;BME280;39353;42.864;12.014;2024-01-15T15:09:54;96003.55;;;19.45;51.18
52653;BME280;39353;42.864;12.014;2024-01-15T15:12:25;96001.33;;;19.46;51.17
52653;BME280;39353;42.864;12.014;2024-01-15T15:14:56;96004.10;;;19.47;50.88
52653;BME280;39353;42.864;12.014;2024-01-15T15:17:27;96010.85;;;19.48;50.95
52653;BME280;39353;42.864;12.014;2024-01-15T15:19:58;96021.35;;;19.48;50.75
52653;BME280;39353;42.864;12.014;2024-01-15T15:22:28;96012.31;;;19.47;50.85
52653;BME280;39353;42.864;12.014;2024-01-15T15:24:59;96019.98;;;19.48;50.94
52653;BME280;39353;42.864;12.014;2024-01-15T15:27:30;96022.02;;;19.48;50.87
52653;BME280;39353;42.864;12.014;2024-01-15T15:30:01;96018.40;;;19.51;50.80
52653;BME280;39353;42.864;12.014;2024-01-15T15:32:32;96018.16;;;19.54;50.41
52653;BME280;39353;42.864;12.014;2024-01-15T15:35:03;96018.81;;;19.57;50.17
52653;BME280;39353;42.864;12.014;2024-01-15T15:37:35;96020.27;;;19.62;50.09
52653;BME280;39353;42.864;12.014;2024-01-15T15:40:08;96026.23;;;19.65;49.77
52653;BME280;39353;42.864;12.014;2024-01-15T15:42:40;96029.00;;;19.67;49.73
52653;BME280;39353;42.864;12.014;2024-01-15T15:45:12;96027.83;;;19.70;49.84
52653;BME280;39353;42.864;12.014;2024-01-15T15:47:43;96025.89;;;19.73;49.76
52653;BME280;39353;42.864;12.014;2024-01-15T15:50:13;96027.05;;;19.74;49.60
52653;BME280;39353;42.864;12.014;2024-01-15T15:52:44;96030.18;;;19.77;49.75
52653;BME280;39353;42.864;12.014;2024-01-15T15:55:15;96028.98;;;19.77;49.69